Aérodrome :
LOGIN :

S'inscrire | Disclaimer

   EN    FR    IT 

 










Légende :    VFR   VFR Marginal   IFR   IFR Intensif   IFR Très Intensif
Visi : 
Plafond : 
>= 8 km
>= 3000ft
5 à 8 km
1000 à 3000 ft
1500m à 5 km
500 à 1000 ft
800 à 1500m
200 à 500 ft
< 800m
< 200 ft
Symboles :   Orages  Brouillard  Fortes neiges  Fortes précipitations  Vent > 20 kt
SIGMETs :   Divers  Orages  Givrage  Turbulence  Onde Orograph.  Cendres Volcan.






- Altitude de l'aérodrome : 125 ft
- Code IATA : MGL


EDLN - Mönchengladbach

DERNIER METAR :
  • 151220Z 24015KT CAVOK 09/03 Q1001

METARs EXPIRÉS :
  • 151150Z 23017KT 210V270 CAVOK 09/04 Q1001
  • 151120Z 23014KT 200V260 CAVOK 09/04 Q1001
  • 151050Z 24014KT CAVOK 09/04 Q1000
  • 151020Z 24011KT 210V280 CAVOK 09/04 Q1000
  • 150950Z 25010G21KT 200V300 CAVOK 08/04 Q1000

TAF TAF EDLN
Valide du 15 à 12h jusqu'au 15 à 21h UTC


151100Z 1512/1521 24015KT CAVOK
TEMPO 1512/1514 24015G25KT
BECMG 1516/1518 18010KT



MET'MAP, la Météo Aéronautique d'un coup d'oeil ! - Copyright ORBIFLY Décembre 2007 - Disclaimer

ORBIFLY MET'MAP TEAM :

Programmation & Développement : Alexandra Zaïnal
Sur une idée originale de : Baudouin d'Aumeries
Assistance à la programmation : Marc-Olivier Méhu
Soutien technique & logistique : Manuel Goepfert

Contact : metmap@orbifly.com




SOURCES & CREDITS :

   NOAA